createdAt,value
2022-08-17T00:02:21.198Z,21.03
2022-08-17T00:07:29.141Z,20.88
2022-08-17T00:12:42.907Z,20.72
2022-08-17T00:17:49.261Z,20.51
2022-08-17T00:23:03.319Z,20.84
2022-08-17T00:28:06.366Z,20.94
2022-08-17T00:33:17.038Z,20.60
2022-08-17T00:38:20.297Z,20.74
2022-08-17T00:43:31.048Z,21.02
2022-08-17T00:48:34.050Z,21.21
2022-08-17T00:53:40.090Z,21.34
2022-08-17T00:58:42.501Z,21.12
2022-08-17T01:03:44.973Z,21.16
2022-08-17T01:08:47.512Z,21.22
2022-08-17T01:13:50.095Z,21.06
2022-08-17T01:18:57.454Z,20.99
2022-08-17T01:24:01.103Z,20.96
2022-08-17T01:29:06.121Z,20.91
2022-08-17T01:34:10.502Z,20.80
2022-08-17T01:39:28.322Z,20.80
2022-08-17T01:44:31.004Z,20.71
2022-08-17T01:49:33.651Z,20.82
2022-08-17T01:54:37.169Z,20.89
2022-08-17T01:59:40.206Z,20.51
2022-08-17T02:04:42.687Z,20.75
2022-08-17T02:09:45.236Z,20.85
2022-08-17T02:14:55.125Z,20.92
2022-08-17T02:19:57.651Z,20.85
2022-08-17T02:25:02.290Z,20.95
2022-08-17T02:30:59.554Z,20.98
2022-08-17T02:35:29.419Z,20.77
2022-08-17T02:40:35.931Z,20.87
2022-08-17T02:45:38.933Z,21.17
2022-08-17T02:50:41.326Z,21.49
2022-08-17T02:55:44.407Z,21.30
2022-08-17T03:00:48.403Z,21.57
2022-08-17T03:05:51.534Z,21.45
2022-08-17T03:10:54.106Z,21.14
2022-08-17T03:15:56.723Z,20.85
2022-08-17T03:21:01.858Z,20.75
2022-08-17T03:26:04.346Z,20.67
2022-08-17T03:31:14.809Z,20.55
2022-08-17T03:36:17.675Z,20.58
2022-08-17T03:41:20.105Z,20.40
2022-08-17T03:46:40.954Z,20.45
2022-08-17T03:52:02.335Z,20.41
2022-08-17T03:57:08.184Z,20.27
2022-08-17T04:02:13.197Z,20.34
2022-08-17T04:07:15.596Z,20.42
2022-08-17T04:12:20.963Z,20.45
2022-08-17T04:17:26.310Z,20.57
2022-08-17T04:22:32.680Z,20.64
2022-08-17T04:27:36.920Z,20.62
2022-08-17T04:33:14.275Z,20.84
2022-08-17T04:38:21.844Z,20.77
2022-08-17T04:43:25.678Z,20.90
2022-08-17T04:48:36.308Z,21.04
2022-08-17T04:53:41.651Z,20.88
2022-08-17T04:58:49.971Z,20.92
2022-08-17T05:03:56.341Z,20.89
2022-08-17T05:09:00.073Z,21.00
2022-08-17T05:14:02.579Z,21.05
2022-08-17T05:19:05.351Z,21.02
2022-08-17T05:24:20.272Z,21.20
2022-08-17T05:29:34.305Z,21.32
2022-08-17T05:34:38.338Z,21.63
2022-08-17T05:39:40.765Z,21.92
2022-08-17T05:44:43.232Z,22.14
2022-08-17T05:49:48.998Z,22.16
2022-08-17T05:55:27.024Z,22.25
2022-08-17T06:00:52.802Z,22.40
2022-08-17T06:06:04.241Z,22.52
2022-08-17T06:11:09.448Z,22.84
2022-08-17T06:16:28.256Z,23.20
2022-08-17T06:21:39.900Z,23.27
2022-08-17T06:26:44.369Z,23.34
2022-08-17T06:31:46.928Z,23.29
2022-08-17T06:36:57.975Z,23.18
2022-08-17T06:42:01.611Z,23.27
2022-08-17T06:47:28.089Z,23.03
2022-08-17T06:53:07.123Z,22.90
2022-08-17T06:58:16.089Z,22.70
2022-08-17T07:04:00.365Z,22.87
2022-08-17T07:09:16.256Z,23.20
2022-08-17T07:14:36.839Z,23.33
2022-08-17T07:19:41.236Z,23.41
2022-08-17T07:24:51.075Z,24.05
2022-08-17T07:30:17.875Z,24.67
2022-08-17T07:35:40.791Z,25.00
2022-08-17T07:40:48.249Z,25.01
2022-08-17T07:46:18.174Z,25.61
2022-08-17T07:51:28.590Z,25.86
2022-08-17T07:56:43.141Z,25.96
2022-08-17T08:02:06.400Z,26.45
2022-08-17T08:07:20.962Z,27.29
2022-08-17T08:12:33.400Z,26.86
2022-08-17T08:17:49.012Z,27.45
2022-08-17T08:23:00.625Z,27.68
2022-08-17T08:28:13.456Z,27.62
2022-08-17T08:33:25.490Z,28.12
2022-08-17T08:39:04.805Z,28.33
2022-08-17T08:45:04.056Z,28.80
2022-08-17T08:50:38.145Z,29.49
2022-08-17T08:56:03.615Z,29.53
2022-08-17T09:01:17.234Z,29.68
2022-08-17T09:10:54.146Z,29.41
2022-08-17T09:16:15.350Z,29.57
2022-08-17T09:21:38.423Z,30.08
2022-08-17T09:27:32.174Z,30.44
2022-08-17T09:32:39.964Z,30.59
2022-08-17T09:37:53.759Z,30.70
2022-08-17T09:43:09.529Z,30.66
2022-08-17T09:48:18.185Z,30.79
2022-08-17T09:53:20.964Z,30.75
2022-08-17T09:58:51.585Z,31.25
2022-08-17T10:04:03.175Z,31.25
2022-08-17T10:09:28.244Z,31.62
2022-08-17T10:14:44.187Z,31.32
2022-08-17T10:20:11.810Z,31.66
2022-08-17T10:25:49.023Z,31.93
2022-08-17T10:31:30.961Z,31.58
2022-08-17T10:36:46.493Z,31.84
2022-08-17T10:41:52.767Z,32.23
2022-08-17T10:49:15.679Z,31.93
2022-08-17T10:54:36.554Z,31.80
2022-08-17T10:59:39.346Z,32.48
2022-08-17T11:05:07.076Z,32.67
2022-08-17T11:10:28.388Z,32.52
2022-08-17T11:15:50.648Z,32.41
2022-08-17T11:21:14.553Z,32.32
2022-08-17T11:26:26.854Z,32.78
2022-08-17T11:31:43.544Z,33.01
2022-08-17T11:37:09.981Z,32.61
2022-08-17T11:42:26.567Z,32.72
2022-08-17T11:48:23.765Z,32.45
2022-08-17T11:53:37.993Z,33.16
2022-08-17T11:58:44.525Z,33.01
2022-08-17T12:03:54.217Z,32.75
2022-08-17T12:09:15.840Z,33.61
2022-08-17T12:14:40.116Z,34.01
2022-08-17T12:19:49.393Z,34.25
2022-08-17T12:25:19.277Z,34.36
2022-08-17T12:30:22.747Z,34.21
2022-08-17T12:35:33.153Z,34.34
2022-08-17T12:40:35.723Z,34.25
2022-08-17T12:45:40.145Z,33.84
2022-08-17T12:50:45.319Z,34.52
2022-08-17T12:55:48.566Z,34.70
2022-08-17T13:01:04.581Z,34.75
2022-08-17T13:06:09.686Z,35.44
2022-08-17T13:11:16.273Z,35.23
2022-08-17T13:16:21.688Z,34.63
2022-08-17T13:21:28.260Z,33.86
2022-08-17T13:26:34.205Z,33.56
2022-08-17T13:31:52.187Z,33.11
2022-08-17T13:37:37.480Z,32.65
2022-08-17T13:42:50.332Z,32.85
2022-08-17T13:48:20.548Z,31.75
2022-08-17T13:53:40.191Z,32.05
2022-08-17T13:58:54.045Z,31.68
2022-08-17T14:03:57.749Z,31.75
2022-08-17T14:09:00.497Z,32.97
2022-08-17T14:14:04.270Z,33.38
2022-08-17T14:19:07.497Z,33.57
2022-08-17T14:24:17.092Z,33.71
2022-08-17T14:29:20.976Z,33.98
2022-08-17T14:34:25.579Z,34.24
2022-08-17T14:39:28.986Z,34.07
2022-08-17T14:44:31.555Z,34.57
2022-08-17T14:49:34.259Z,34.23
2022-08-17T14:54:36.881Z,34.58
2022-08-17T14:59:39.521Z,34.40
2022-08-17T15:04:45.654Z,34.05
2022-08-17T15:09:48.779Z,34.08
2022-08-17T15:14:52.201Z,33.66
2022-08-17T15:19:54.579Z,33.77
2022-08-17T15:24:57.295Z,33.53
2022-08-17T15:29:59.725Z,33.32
2022-08-17T15:35:03.251Z,33.04
2022-08-17T15:40:07.374Z,32.92
2022-08-17T15:45:13.033Z,32.96
2022-08-17T15:50:15.587Z,32.74
2022-08-17T15:55:23.499Z,32.69
2022-08-17T16:00:28.653Z,32.56
2022-08-17T16:05:31.510Z,32.54
2022-08-17T16:10:35.618Z,32.39
2022-08-17T16:15:38.510Z,32.42
2022-08-17T16:20:41.123Z,32.03
2022-08-17T16:25:52.884Z,32.24
2022-08-17T16:30:56.704Z,32.12
2022-08-17T16:35:59.333Z,31.93
2022-08-17T16:41:02.634Z,31.81
2022-08-17T16:46:05.165Z,31.41
2022-08-17T16:51:08.491Z,31.59
2022-08-17T16:56:10.931Z,31.10
2022-08-17T17:01:13.951Z,30.63
2022-08-17T17:06:29.610Z,30.41
2022-08-17T17:11:36.519Z,30.22
2022-08-17T17:16:49.187Z,30.20
2022-08-17T17:22:11.463Z,29.84
2022-08-17T17:27:48.470Z,29.49
2022-08-17T17:33:05.939Z,29.34
2022-08-17T17:38:12.265Z,29.59
2022-08-17T17:43:37.829Z,29.12
2022-08-17T17:48:41.031Z,29.30
2022-08-17T17:53:58.770Z,28.92
2022-08-17T17:59:12.723Z,28.99
2022-08-17T18:04:42.602Z,28.85
2022-08-17T18:10:19.674Z,28.44
2022-08-17T18:15:37.155Z,28.12
2022-08-17T18:20:54.115Z,27.48
2022-08-17T18:25:59.583Z,27.29
2022-08-17T18:31:19.148Z,26.92
2022-08-17T18:36:39.999Z,26.53
2022-08-17T18:41:44.459Z,26.46
2022-08-17T18:46:46.817Z,26.31
2022-08-17T18:51:49.421Z,26.13
2022-08-17T18:56:57.655Z,26.03
2022-08-17T19:02:16.014Z,25.78
2022-08-17T19:07:26.471Z,25.62
2022-08-17T19:12:33.903Z,25.48
2022-08-17T19:17:48.397Z,25.50
2022-08-17T19:23:05.271Z,26.26
2022-08-17T19:28:42.617Z,26.40
2022-08-17T19:33:51.604Z,26.37
2022-08-17T19:39:04.427Z,26.40
2022-08-17T19:44:15.855Z,26.48
2022-08-17T19:49:32.837Z,26.06
2022-08-17T19:55:00.600Z,25.87
2022-08-17T20:00:06.916Z,25.51
2022-08-17T20:05:15.263Z,25.53
2022-08-17T20:10:56.739Z,25.74
2022-08-17T20:15:59.395Z,25.62
2022-08-17T20:21:06.846Z,25.69
2022-08-17T20:26:29.477Z,25.64
2022-08-17T20:31:49.081Z,25.45
2022-08-17T20:37:14.574Z,25.17
2022-08-17T20:42:22.963Z,24.67
2022-08-17T20:48:00.933Z,24.49
2022-08-17T20:53:08.704Z,24.89
2022-08-17T20:58:21.356Z,25.07
2022-08-17T21:03:23.713Z,25.03
2022-08-17T21:08:58.071Z,24.96
2022-08-17T21:14:15.360Z,24.85
2022-08-17T21:19:17.771Z,24.58
2022-08-17T21:24:27.224Z,24.31
2022-08-17T21:29:34.102Z,24.11
2022-08-17T21:34:44.371Z,24.47
2022-08-17T21:39:51.509Z,24.22
2022-08-17T21:44:58.092Z,23.69
2022-08-17T21:50:20.884Z,23.38
2022-08-17T21:55:28.435Z,23.36
2022-08-17T22:00:32.134Z,23.09
2022-08-17T22:05:38.542Z,23.04
2022-08-17T22:10:43.945Z,22.90
2022-08-17T22:16:15.669Z,22.84
2022-08-17T22:21:30.786Z,22.64
2022-08-17T22:27:00.340Z,22.54
2022-08-17T22:32:02.995Z,22.30
2022-08-17T22:37:27.712Z,22.29
2022-08-17T22:42:30.626Z,22.28
2022-08-17T22:47:43.005Z,22.34
2022-08-17T22:53:04.705Z,22.38
2022-08-17T22:58:30.585Z,22.18
2022-08-17T23:03:32.995Z,22.10
2022-08-17T23:09:05.020Z,22.05
2022-08-17T23:14:07.525Z,22.08
2022-08-17T23:19:15.536Z,21.94
2022-08-17T23:24:25.556Z,21.86
2022-08-17T23:29:29.705Z,21.99
2022-08-17T23:34:32.462Z,22.06
2022-08-17T23:39:35.297Z,22.05
2022-08-17T23:44:39.662Z,22.08
2022-08-17T23:49:42.668Z,22.07
2022-08-17T23:54:48.543Z,22.21
2022-08-17T23:59:50.966Z,22.30
